Create Tblcommutelog Verified Points Advance Search
| # | Trip ID | Id Commuter | Trip Date | Trip Num | Current Lat | Current Lng | Delta Distance | Current Time | Activity | Activity Confidence | Current Speed | |
|---|---|---|---|---|---|---|---|---|---|---|---|---|
| 73381 | 251118_789382_6439306_0702 | 789382 | (not set) | (not set) | 38.829676167208 | -77.113004805045 | 4.2762 | 2025-11-18 07:18:56 | in_vehicle | 100 | 3.6254883903904 | |
| 73382 | 251118_786079_16514446_0717 | 786079 | (not set) | (not set) | 39.350133945417 | -76.546221802106 | 0 | 2025-11-18 07:19:04 | unknown | 100 | -0.44703925898772 | |
| 73383 | 251118_789037_16497608_0700 | 789037 | (not set) | (not set) | 38.944537833954 | -76.718141640204 | 7.2426 | 2025-11-18 07:19:13 | in_vehicle | 100 | 9.3073573721244 | |
| 73384 | 251118_784917_16428364_0631 | 784917 | (not set) | (not set) | 38.954312187697 | -77.395220296954 | 21.199 | 2025-11-18 07:19:22 | in_vehicle | 100 | 10.223787853049 | |
| 73385 | 251118_788537_16416993_0651 | 788537 | (not set) | (not set) | 39.282361327956 | -76.671022377292 | 16.6222 | 2025-11-18 07:19:29 | in_vehicle | 100 | 7.3627365955278 | |
| 73386 | 251118_784389_6428266_0706 | 784389 | (not set) | (not set) | 39.041162590686 | -77.520690156532 | 2.9999 | 2025-11-18 07:19:36 | in_vehicle | 100 | 1.7255715396926 | |
| 73387 | 251118_786124_6441454_0702 | 786124 | (not set) | (not set) | 39.310974800751 | -77.349478824943 | 10.2022 | 2025-11-18 07:19:41 | in_vehicle | 100 | 4.7207345749104 | |
| 73388 | 251118_783315_16506039_0719 | 783315 | (not set) | (not set) | 38.7382025 | -77.2463699 | 0.0319 | 2025-11-18 07:19:49 | walking | 100 | 0.026822355539263 | |
| 73389 | 251118_786078_16514445_0711 | 786078 | (not set) | (not set) | 39.347718044131 | -76.551148137385 | 2.0298 | 2025-11-18 07:19:56 | in_vehicle | 100 | 7.8857725285435 | |
| 73390 | 251118_738572_16489587_0657 | 738572 | (not set) | (not set) | 38.94335917949 | -76.849831305889 | 11.4112 | 2025-11-18 07:20:03 | in_vehicle | 100 | 6.8754638032312 | |
| 73391 | 251118_786079_16514446_0717 | 786079 | (not set) | (not set) | 39.347294577519 | -76.553075917651 | 0.8974 | 2025-11-18 07:20:08 | unknown | 100 | 5.5879907373466 | |
| 73392 | 251118_788084_16449863_0628 | 788084 | (not set) | (not set) | 39.266473629443 | -76.598131725269 | 22.8381 | 2025-11-18 07:20:19 | in_vehicle | 100 | 12.289109229573 | |
| 73393 | 251118_772509_16419859_0652 | 772509 | (not set) | (not set) | 38.744237 | -76.999945833333 | 12.0553 | 2025-11-18 07:20:28 | in_vehicle | 100 | 0.82702262912729 | |
| 73394 | 251118_664385_6439034_0634 | 664385 | (not set) | (not set) | 38.882882882883 | -77.008710699593 | 0 | 2025-11-18 07:15:24 | walking | 100 | -0.44703925898772 | |
| 73395 | 251118_786026_16514421_0703 | 786026 | (not set) | (not set) | 38.988701283186 | -76.92452646763 | 2.5266 | 2025-11-18 07:20:39 | on_bicycle | 100 | 2.3380153245058 | |
| 73396 | 251118_772259_16460160_0706 | 772259 | (not set) | (not set) | 39.012640656623 | -77.042057077678 | 6.5764 | 2025-11-18 07:20:46 | in_vehicle | 100 | 0 | |
| 73397 | 251118_789037_16497608_0700 | 789037 | (not set) | (not set) | 38.935384128397 | -76.717942169518 | 7.8742 | 2025-11-18 07:20:55 | in_vehicle | 100 | 11.524672096704 | |
| 73398 | 251118_786124_6441454_0702 | 786124 | (not set) | (not set) | 39.299523763425 | -77.33823145506 | 11.2236 | 2025-11-18 07:21:04 | in_vehicle | 100 | 6.9246381217198 | |
| 73399 | 251118_772259_16460160_0706 | 772259 | (not set) | (not set) | 39.0109563 | -77.0411623 | 6.7053 | 2025-11-18 07:21:13 | in_vehicle | 100 | 3.9562974420414 | |
| 73400 | 251118_789732_16516120_0712 | 789732 | (not set) | (not set) | 38.883258892964 | -77.228533685239 | 0.4481 | 2025-11-18 07:21:22 | on_foot | 100 | 0.64373653294232 |